Jim Hamilton L.B. Owens Airport
KCUB : now visible

Airfield :











YOU CAN JOIN US ON...

 
LOGIN :

Register | Disclaimer

   EN    FR    IT 

 









Legend :    VFR   Marginal VFR   IFR   Intensive IFR   Very Intensive IFR
Visi :
Ceiling :
>= 8 km
>= 3000ft
5 to 8 km
1000 to 3000 ft
1500m to 5 km
500 to 1000 ft
800 to 1500m
200 to 500 ft
< 800m
< 200 ft
Symbols :   Thunderstorms  Fog  Heavy snow  Heavy precipitations  Wind > 20 kt







- Airport Elevation : 193 ft


KCUB - Jim Hamilton L.B. Owens

CURRENT METAR :
  • 212053Z AUTO VRB03KT 10SM CLR 31/13 A3021 RMK AO2 SLP227 T03060128 56020

EXPIRED METARs :
  • 211953Z AUTO VRB03KT 10SM SCT065 31/13 A3022 RMK AO2 SLP231 T03060133
  • 211853Z AUTO 26006KT 10SM CLR 31/14 A3025 RMK AO2 SLP241 T03060139

TAF KCUB
Valid from the 21 at 21:00 until the 22 at 18:00 UTC


212035Z 2121/2218 VRB04KT P6SM FEW050
No reported NOTAMs for that airfield.



MET'MAP, your aeronautical weather chart ! - Copyright ORBIFLY December 2007 - Disclaimer

ORBIFLY MET'MAP TEAM :

Programming & Development : Alexandra Zaïnal
Concept & Development : Baudouin d'Aumeries
Co-Development & Prog : Marc-Olivier Méhu
Technical & hardware support : Manuel Goepfert

Contact : metmap@orbifly.com




SOURCES & CREDITS :

   NOAA       Earth
Advisory